Time;durP1;ratioP1;P1;durP2;ratioP2;P2;SDS_P1;SDS_P2;PMS_P1;PMS_P2;Temp;Humidity;BMP_temperature;BMP_pressure;BME280_temperature;BME280_humidity;BME280_pressure;Samples;Min_cycle;Max_cycle;Signal;HPM_P1;HPM_P2
2023/10/09 03:00:56;;;;;;;;;;;14.50;99.90;;;;;;5789297;23;19928;-76
2023/10/09 03:03:21;;;;;;;;;;;14.60;99.90;;;;;;5033413;28;19917;-78
2023/10/09 03:05:49;;;;;;;;;;;14.60;99.90;;;;;;5032345;28;19917;-76
2023/10/09 03:08:16;;;;;;;;;;;14.60;99.90;;;;;;5032046;28;19921;-77
2023/10/09 03:10:42;;;;;;;;;;;14.60;99.90;;;;;;5027592;28;20020;-75
2023/10/09 03:13:07;;;;;;;;;;;14.60;99.90;;;;;;5015898;28;19949;-77
2023/10/09 03:15:36;;;;;;;;;;;14.70;99.90;;;;;;5016289;28;19925;-78
2023/10/09 03:18:02;;;;;;;;;;;14.70;99.90;;;;;;5016178;28;19918;-79
2023/10/09 03:20:30;;;;;;;;;;;14.70;99.90;;;;;;5015987;28;20352;-79
2023/10/09 03:22:55;;;;;;;;;;;14.70;99.90;;;;;;5000055;28;19922;-78
2023/10/09 03:25:24;;;;;;;;;;;14.70;99.90;;;;;;5014644;28;19972;-77
2023/10/09 03:27:51;;;;;;;;;;;14.70;99.90;;;;;;5015452;28;19971;-78
2023/10/09 03:30:23;;;;;;;;;;;14.70;99.90;;;;;;5015422;28;19917;-78
2023/10/09 03:32:52;;;;;;;;;;;14.80;99.90;;;;;;5014505;28;19918;-78
2023/10/09 03:35:23;;;;;;;;;;;14.80;99.90;;;;;;4999315;28;19917;-79
2023/10/09 03:37:50;;;;;;;;;;;14.80;99.90;;;;;;5016247;28;19979;-78
2023/10/09 03:40:17;;;;;;;;;;;14.90;99.90;;;;;;5015720;28;19928;-79
2023/10/09 03:42:44;;;;;;;;;;;14.90;99.90;;;;;;5015659;28;20340;-80
2023/10/09 03:45:18;;;;;;;;;;;15.00;99.90;;;;;;5015684;28;19978;-79
2023/10/09 03:47:48;;;;;;;;;;;15.00;99.90;;;;;;5016225;28;20250;-79
2023/10/09 03:51:08;;;;;;;;;;;15.10;99.90;;;;;;5015840;28;20276;-79
2023/10/09 03:53:07;;;;;;;;;;;15.10;99.90;;;;;;5010467;28;20411;-80
2023/10/09 03:55:34;;;;;;;;;;;15.10;99.90;;;;;;5015892;28;19967;-78
2023/10/09 03:58:00;;;;;;;;;;;15.20;99.90;;;;;;5016772;28;19924;-79
2023/10/09 04:00:28;;;;;;;;;;;15.10;99.90;;;;;;5015070;28;19917;-80
2023/10/09 04:02:57;;;;;;;;;;;15.10;99.90;;;;;;5015420;28;19967;-79
2023/10/09 04:05:24;;;;;;;;;;;15.10;99.90;;;;;;5015331;28;20013;-78
2023/10/09 04:07:50;;;;;;;;;;;15.10;99.90;;;;;;5015454;28;19960;-77
2023/10/09 04:13:02;;;;;;;;;;;15.20;99.90;;;;;;5015207;28;20024;-79
2023/10/09 04:15:30;;;;;;;;;;;15.20;99.90;;;;;;5015377;28;20021;-78
2023/10/09 04:17:56;;;;;;;;;;;15.20;99.90;;;;;;5015011;28;20000;-77
2023/10/09 04:22:50;;;;;;;;;;;15.30;99.90;;;;;;5013863;28;20425;-80
2023/10/09 04:25:29;;;;;;;;;;;15.30;99.90;;;;;;5014918;28;19925;-78
2023/10/09 04:30:55;;;;;;;;;;;15.30;99.90;;;;;;5014733;28;19951;-79
2023/10/09 04:39:06;;;;;;;;;;;15.30;99.90;;;;;;5014984;28;19925;-80
2023/10/09 04:41:33;;;;;;;;;;;15.40;99.90;;;;;;5014693;28;19928;-79
2023/10/09 04:47:18;;;;;;;;;;;15.40;99.90;;;;;;5014780;28;20336;-78
2023/10/09 04:49:45;;;;;;;;;;;15.40;99.90;;;;;;5014618;28;20225;-78
2023/10/09 04:52:19;;;;;;;;;;;15.40;99.90;;;;;;5014315;28;19917;-79
2023/10/09 04:57:29;;;;;;;;;;;15.50;99.90;;;;;;5014643;28;20311;-79
2023/10/09 04:59:58;;;;;;;;;;;15.50;99.90;;;;;;5014609;28;19921;-78
2023/10/09 05:02:24;;;;;;;;;;;15.50;99.90;;;;;;4997761;28;20314;-78
2023/10/09 05:05:15;;;;;;;;;;;15.50;99.90;;;;;;5014538;28;19924;-78
2023/10/09 05:10:53;;;;;;;;;;;15.60;99.90;;;;;;4977713;28;19918;-78
2023/10/09 05:13:42;;;;;;;;;;;15.60;99.90;;;;;;5010709;28;19920;-79
2023/10/09 05:16:33;;;;;;;;;;;15.60;99.90;;;;;;5013926;28;19925;-78
2023/10/09 05:19:08;;;;;;;;;;;15.60;99.90;;;;;;5013883;28;20383;-79
2023/10/09 05:29:19;;;;;;;;;;;15.70;99.90;;;;;;5014130;28;19928;-79
2023/10/09 05:31:56;;;;;;;;;;;15.70;99.90;;;;;;5013715;28;19921;-80
2023/10/09 05:34:23;;;;;;;;;;;15.70;99.90;;;;;;5013341;28;19923;-80
2023/10/09 05:36:49;;;;;;;;;;;15.70;99.90;;;;;;5014807;28;19939;-79
2023/10/09 05:42:09;;;;;;;;;;;15.80;99.90;;;;;;5010753;28;19928;-78
2023/10/09 05:47:31;;;;;;;;;;;15.80;99.90;;;;;;5012736;28;19924;-79
2023/10/09 05:50:34;;;;;;;;;;;15.90;99.90;;;;;;5013523;28;19917;-79
2023/10/09 06:08:26;;;;;;;;;;;16.00;99.90;;;;;;5013228;28;19921;-79
2023/10/09 06:14:02;;;;;;;;;;;16.00;99.90;;;;;;4990874;28;19936;-79
2023/10/09 06:19:12;;;;;;;;;;;16.10;99.90;;;;;;5012600;28;20372;-78
2023/10/09 06:24:19;;;;;;;;;;;16.10;99.90;;;;;;5012649;28;19929;-77
2023/10/09 06:27:12;;;;;;;;;;;16.10;99.90;;;;;;5012655;28;19917;-78
2023/10/09 06:29:50;;;;;;;;;;;16.10;99.90;;;;;;5012499;28;19917;-78
2023/10/09 06:32:34;;;;;;;;;;;16.10;99.90;;;;;;5012590;28;19961;-79
2023/10/09 06:35:21;;;;;;;;;;;16.10;99.90;;;;;;5012579;28;19917;-79
2023/10/09 06:43:09;;;;;;;;;;;16.10;99.90;;;;;;5012198;28;20380;-80
2023/10/09 06:45:44;;;;;;;;;;;16.10;99.90;;;;;;5011817;28;19918;-79
2023/10/09 06:58:57;;;;;;;;;;;16.20;99.90;;;;;;5012661;28;19971;-79
2023/10/09 07:01:30;;;;;;;;;;;16.20;99.90;;;;;;5012155;28;20391;-80
2023/10/09 07:04:10;;;;;;;;;;;16.20;99.90;;;;;;5012743;28;19987;-79
2023/10/09 07:16:58;;;;;;;;;;;16.20;99.90;;;;;;5013842;28;19921;-79
2023/10/09 07:24:56;;;;;;;;;;;16.20;99.90;;;;;;5012338;28;19918;-80
2023/10/09 07:27:44;;;;;;;;;;;16.20;99.90;;;;;;5012148;28;19917;-78
2023/10/09 07:38:10;;;;;;;;;;;16.20;99.90;;;;;;5013461;28;20023;-79
2023/10/09 07:40:55;;;;;;;;;;;16.20;99.90;;;;;;5012285;28;19921;-80
2023/10/09 07:43:26;;;;;;;;;;;16.30;99.90;;;;;;5012018;28;19917;-80
2023/10/09 07:48:25;;;;;;;;;;;16.30;99.90;;;;;;5012035;28;20012;-79
2023/10/09 07:50:57;;;;;;;;;;;16.30;99.90;;;;;;5011965;28;19924;-79
2023/10/09 07:53:29;;;;;;;;;;;16.30;99.90;;;;;;5011871;28;19943;-79
2023/10/09 07:55:58;;;;;;;;;;;16.40;99.90;;;;;;5012233;28;19924;-77
2023/10/09 07:58:26;;;;;;;;;;;16.40;99.90;;;;;;5013994;28;19917;-78
2023/10/09 08:01:35;;;;;;;;;;;16.40;99.90;;;;;;5014942;28;19917;-81
2023/10/09 08:03:57;;;;;;;;;;;16.40;99.90;;;;;;5008661;28;19917;-79
2023/10/09 08:06:38;;;;;;;;;;;16.40;99.90;;;;;;4998158;28;20073;-79
2023/10/09 08:17:17;;;;;;;;;;;16.50;99.90;;;;;;5015081;28;19924;-79
2023/10/09 08:19:55;;;;;;;;;;;16.50;99.90;;;;;;5015506;28;19964;-77
2023/10/09 08:24:56;;;;;;;;;;;16.60;99.90;;;;;;5015175;28;19918;-79
2023/10/09 08:32:42;;;;;;;;;;;16.50;99.90;;;;;;5014890;28;19959;-79
2023/10/09 08:35:29;;;;;;;;;;;16.50;99.90;;;;;;5014742;28;19917;-79
2023/10/09 08:38:00;;;;;;;;;;;16.50;99.90;;;;;;5014693;28;19951;-78
2023/10/09 08:40:33;;;;;;;;;;;16.50;99.90;;;;;;4998300;28;19972;-79
2023/10/09 08:43:10;;;;;;;;;;;16.50;99.90;;;;;;5014516;28;19921;-80
2023/10/09 08:45:39;;;;;;;;;;;16.50;99.90;;;;;;5014902;28;19929;-80
2023/10/09 08:48:08;;;;;;;;;;;16.50;99.90;;;;;;5014571;28;20007;-80
2023/10/09 08:50:35;;;;;;;;;;;16.50;99.90;;;;;;5014535;28;19917;-79
2023/10/09 08:53:03;;;;;;;;;;;16.50;99.90;;;;;;4998103;28;19924;-80
2023/10/09 08:55:28;;;;;;;;;;;16.60;99.90;;;;;;5015681;28;19917;-79
2023/10/09 08:57:57;;;;;;;;;;;16.60;99.90;;;;;;5014536;28;20276;-78
2023/10/09 09:00:23;;;;;;;;;;;16.60;99.90;;;;;;4997669;28;20003;-81
2023/10/09 09:02:55;;;;;;;;;;;16.60;99.90;;;;;;4997883;28;20408;-78
2023/10/09 09:05:21;;;;;;;;;;;16.60;99.90;;;;;;5014101;28;19917;-80
2023/10/09 09:07:47;;;;;;;;;;;16.60;99.90;;;;;;5015371;28;19964;-80
2023/10/09 09:10:23;;;;;;;;;;;16.60;99.90;;;;;;5013849;28;19929;-77
2023/10/09 09:13:00;;;;;;;;;;;16.60;99.90;;;;;;5013921;28;19944;-79
2023/10/09 09:15:29;;;;;;;;;;;16.70;99.90;;;;;;5014063;28;19923;-80
2023/10/09 09:18:09;;;;;;;;;;;16.70;99.90;;;;;;5013898;28;19917;-80
2023/10/09 09:20:36;;;;;;;;;;;16.70;99.90;;;;;;5013763;28;20484;-79
2023/10/09 09:23:05;;;;;;;;;;;16.70;99.90;;;;;;5013539;28;20015;-80
2023/10/09 09:25:50;;;;;;;;;;;16.70;99.90;;;;;;5015002;28;19976;-79
2023/10/09 09:28:21;;;;;;;;;;;16.70;99.90;;;;;;4997318;28;19975;-80
2023/10/09 09:30:56;;;;;;;;;;;16.70;99.90;;;;;;5013591;28;20024;-80
2023/10/09 09:33:42;;;;;;;;;;;16.70;99.90;;;;;;5013675;28;19918;-78
2023/10/09 09:36:11;;;;;;;;;;;16.80;99.90;;;;;;5013635;28;19917;-79
2023/10/09 09:38:49;;;;;;;;;;;16.70;99.90;;;;;;5013475;28;20008;-79
2023/10/09 09:41:24;;;;;;;;;;;16.80;99.90;;;;;;5013399;28;20320;-80
2023/10/09 09:43:52;;;;;;;;;;;16.80;99.90;;;;;;4997115;28;19924;-80
2023/10/09 09:46:18;;;;;;;;;;;16.80;99.90;;;;;;5013404;28;19968;-79
2023/10/09 09:48:45;;;;;;;;;;;16.90;99.90;;;;;;5013122;28;19965;-79
2023/10/09 09:51:13;;;;;;;;;;;16.90;99.90;;;;;;5013253;28;20014;-80
2023/10/09 09:53:40;;;;;;;;;;;17.00;99.90;;;;;;5014523;28;20017;-80
2023/10/09 09:56:06;;;;;;;;;;;17.00;99.90;;;;;;5013207;28;19925;-79
2023/10/09 09:58:41;;;;;;;;;;;17.10;99.90;;;;;;5013222;28;19924;-79
2023/10/09 10:01:16;;;;;;;;;;;17.10;99.90;;;;;;5014062;28;20008;-79
2023/10/09 10:03:44;;;;;;;;;;;17.20;99.90;;;;;;5013086;28;19917;-79
2023/10/09 10:06:12;;;;;;;;;;;17.20;99.90;;;;;;5013001;28;19918;-79
2023/10/09 10:08:39;;;;;;;;;;;17.20;99.90;;;;;;5012983;28;19924;-79
2023/10/09 10:11:05;;;;;;;;;;;17.20;99.90;;;;;;4996504;28;19917;-78
2023/10/09 10:13:56;;;;;;;;;;;17.20;99.90;;;;;;5013058;28;19940;-79
2023/10/09 10:16:22;;;;;;;;;;;17.20;99.90;;;;;;4991854;28;19917;-78
2023/10/09 10:18:56;;;;;;;;;;;17.20;99.90;;;;;;4996049;28;20369;-79
2023/10/09 10:24:09;;;;;;;;;;;17.30;99.90;;;;;;5012831;28;19917;-79
2023/10/09 10:26:36;;;;;;;;;;;17.30;99.90;;;;;;5012528;28;20072;-79
2023/10/09 10:29:34;;;;;;;;;;;17.40;99.90;;;;;;5012655;28;19917;-78
2023/10/09 10:32:01;;;;;;;;;;;17.40;99.90;;;;;;5012328;28;20056;-80
2023/10/09 10:34:49;;;;;;;;;;;17.40;99.90;;;;;;5012887;28;19918;-79
2023/10/09 10:37:15;;;;;;;;;;;17.40;99.90;;;;;;5012834;28;20269;-79
2023/10/09 10:40:13;;;;;;;;;;;17.40;99.90;;;;;;5012954;28;19917;-79
2023/10/09 10:43:09;;;;;;;;;;;17.50;99.90;;;;;;5012704;28;19975;-80
2023/10/09 10:45:35;;;;;;;;;;;17.50;99.90;;;;;;5012546;28;19917;-80
2023/10/09 10:48:06;;;;;;;;;;;17.50;99.90;;;;;;5014040;28;20326;-80
2023/10/09 10:53:34;;;;;;;;;;;17.60;99.90;;;;;;5023861;28;20007;-80
2023/10/09 10:59:27;;;;;;;;;;;17.70;99.90;;;;;;5032583;28;20357;-82
2023/10/09 11:01:53;;;;;;;;;;;17.80;99.90;;;;;;5031692;28;19925;-80
2023/10/09 11:04:24;;;;;;;;;;;17.70;99.90;;;;;;5032411;28;19917;-78
2023/10/09 11:07:24;;;;;;;;;;;17.70;99.90;;;;;;5033460;28;20321;-81
2023/10/09 11:10:08;;;;;;;;;;;17.70;99.90;;;;;;5032256;28;19967;-80
2023/10/09 11:12:42;;;;;;;;;;;17.80;99.90;;;;;;5032452;28;19917;-80
2023/10/09 11:18:08;;;;;;;;;;;18.20;99.90;;;;;;5032427;28;19917;-80
2023/10/09 11:20:53;;;;;;;;;;;18.40;99.90;;;;;;5031889;28;19921;-78
2023/10/09 11:23:29;;;;;;;;;;;18.70;99.90;;;;;;5029951;28;19921;-80
2023/10/09 11:26:07;;;;;;;;;;;18.70;99.90;;;;;;5031133;28;20284;-79
2023/10/09 11:31:17;;;;;;;;;;;18.70;99.90;;;;;;5031245;28;19917;-80
2023/10/09 11:33:53;;;;;;;;;;;18.60;99.90;;;;;;5034105;28;20011;-80
2023/10/09 11:36:31;;;;;;;;;;;18.60;99.90;;;;;;5035246;28;19917;-79
2023/10/09 11:39:13;;;;;;;;;;;18.50;99.90;;;;;;5035905;28;19959;-79
2023/10/09 11:41:42;;;;;;;;;;;18.50;99.90;;;;;;5035424;28;19921;-80
2023/10/09 11:44:18;;;;;;;;;;;18.40;99.90;;;;;;5035443;28;19939;-80
2023/10/09 11:47:22;;;;;;;;;;;18.30;99.90;;;;;;5035358;28;19917;-80
2023/10/09 11:49:56;;;;;;;;;;;18.30;99.90;;;;;;5035405;28;20011;-81
2023/10/09 11:52:56;;;;;;;;;;;18.30;99.90;;;;;;5036407;28;20055;-79
2023/10/09 11:55:25;;;;;;;;;;;18.20;99.90;;;;;;5034754;28;19963;-80
2023/10/09 11:57:53;;;;;;;;;;;18.20;99.90;;;;;;5035063;28;19943;-78
2023/10/09 12:00:41;;;;;;;;;;;18.10;99.90;;;;;;5035003;28;19917;-81
2023/10/09 12:03:07;;;;;;;;;;;18.10;99.90;;;;;;5033613;28;20004;-80
2023/10/09 12:05:33;;;;;;;;;;;18.10;99.90;;;;;;5034635;28;20042;-80
2023/10/09 12:08:01;;;;;;;;;;;18.10;99.90;;;;;;5034249;28;19960;-80
2023/10/09 12:10:26;;;;;;;;;;;18.10;99.90;;;;;;5034178;28;19924;-80
2023/10/09 12:12:53;;;;;;;;;;;18.10;99.90;;;;;;5035523;28;19916;-79
2023/10/09 12:15:19;;;;;;;;;;;18.10;99.90;;;;;;5034614;28;19924;-80
2023/10/09 12:17:46;;;;;;;;;;;18.00;99.90;;;;;;5036043;28;19924;-80
2023/10/09 12:20:31;;;;;;;;;;;18.00;99.90;;;;;;5035157;28;19917;-79
2023/10/09 12:23:01;;;;;;;;;;;17.90;99.90;;;;;;5034804;28;19921;-80
2023/10/09 12:25:27;;;;;;;;;;;17.90;99.90;;;;;;5034776;28;19916;-80
2023/10/09 12:27:57;;;;;;;;;;;17.90;99.90;;;;;;5035080;28;20292;-79
2023/10/09 12:30:26;;;;;;;;;;;17.90;99.90;;;;;;5018198;28;19917;-81
2023/10/09 12:32:53;;;;;;;;;;;17.90;99.90;;;;;;5034823;28;20391;-79
2023/10/09 12:35:18;;;;;;;;;;;17.90;99.90;;;;;;5035855;28;20011;-80
2023/10/09 12:37:44;;;;;;;;;;;17.90;99.90;;;;;;5034491;28;19968;-79
2023/10/09 12:40:10;;;;;;;;;;;17.90;99.90;;;;;;5034757;28;19975;-80
2023/10/09 12:42:36;;;;;;;;;;;18.00;99.90;;;;;;5034613;28;19968;-79
2023/10/09 12:45:09;;;;;;;;;;;18.00;99.90;;;;;;5034523;28;19921;-80
2023/10/09 12:47:37;;;;;;;;;;;18.10;99.90;;;;;;5035868;28;20427;-80
2023/10/09 12:50:12;;;;;;;;;;;18.20;99.90;;;;;;5034383;28;19917;-78
2023/10/09 12:52:38;;;;;;;;;;;18.30;99.90;;;;;;5034448;28;19921;-80
2023/10/09 12:55:08;;;;;;;;;;;18.30;99.90;;;;;;5035957;28;20260;-79
2023/10/09 12:57:34;;;;;;;;;;;18.30;99.90;;;;;;5035900;28;19916;-79
2023/10/09 12:59:59;;;;;;;;;;;18.30;99.90;;;;;;5034500;28;20032;-78
2023/10/09 13:02:28;;;;;;;;;;;18.30;99.90;;;;;;5035186;28;20459;-77
2023/10/09 13:04:57;;;;;;;;;;;18.40;99.90;;;;;;5034741;28;20024;-79
2023/10/09 13:07:23;;;;;;;;;;;18.40;99.90;;;;;;5035065;28;19921;-77
2023/10/09 13:12:33;;;;;;;;;;;18.40;99.90;;;;;;5035281;28;19971;-79
2023/10/09 13:14:58;;;;;;;;;;;18.30;99.90;;;;;;5035028;28;19921;-80
2023/10/09 13:17:27;;;;;;;;;;;18.30;99.90;;;;;;5033890;28;19919;-80
2023/10/09 13:19:52;;;;;;;;;;;18.30;99.90;;;;;;5034023;28;19943;-79
2023/10/09 13:22:18;;;;;;;;;;;18.30;99.90;;;;;;5033594;28;20386;-79
2023/10/09 13:24:48;;;;;;;;;;;18.30;99.90;;;;;;5033987;28;19924;-78
2023/10/09 13:27:21;;;;;;;;;;;18.20;99.90;;;;;;5033956;28;19920;-78
2023/10/09 13:29:47;;;;;;;;;;;18.20;99.90;;;;;;5033555;28;20008;-78
2023/10/09 13:32:15;;;;;;;;;;;18.10;99.90;;;;;;5033913;28;19916;-80
2023/10/09 13:34:44;;;;;;;;;;;18.10;99.90;;;;;;5033756;28;19923;-77
2023/10/09 13:37:13;;;;;;;;;;;18.10;99.90;;;;;;5033903;28;20411;-80
2023/10/09 13:39:51;;;;;;;;;;;18.00;99.90;;;;;;5017074;28;19924;-79
2023/10/09 13:42:17;;;;;;;;;;;18.00;99.90;;;;;;5016787;28;19921;-79
2023/10/09 13:44:43;;;;;;;;;;;18.10;99.90;;;;;;5033298;28;19924;-79
2023/10/09 13:47:18;;;;;;;;;;;18.30;99.90;;;;;;5033730;28;19971;-80
2023/10/09 13:49:44;;;;;;;;;;;18.30;99.90;;;;;;5035158;28;19921;-80
2023/10/09 13:52:10;;;;;;;;;;;18.30;99.90;;;;;;5033245;28;20288;-80
2023/10/09 13:57:05;;;;;;;;;;;18.30;99.90;;;;;;5033214;28;19942;-79
2023/10/09 13:59:31;;;;;;;;;;;18.30;99.90;;;;;;5033123;28;20265;-78
2023/10/09 14:01:59;;;;;;;;;;;18.30;99.90;;;;;;5033924;28;19921;-78
2023/10/09 14:04:25;;;;;;;;;;;18.30;99.90;;;;;;5034235;28;19960;-80
2023/10/09 14:06:56;;;;;;;;;;;18.30;99.90;;;;;;5034370;28;19960;-80
2023/10/09 14:09:32;;;;;;;;;;;18.20;99.90;;;;;;5032882;28;19917;-81
2023/10/09 14:12:08;;;;;;;;;;;18.20;99.90;;;;;;5032835;28;19924;-79
2023/10/09 14:14:46;;;;;;;;;;;18.20;99.90;;;;;;5033148;28;20434;-79
2023/10/09 14:17:19;;;;;;;;;;;18.10;99.90;;;;;;5033025;28;20054;-79
2023/10/09 14:19:47;;;;;;;;;;;18.00;99.90;;;;;;5032781;28;19917;-80
2023/10/09 14:22:15;;;;;;;;;;;18.00;99.90;;;;;;5032491;28;19921;-80
2023/10/09 14:24:44;;;;;;;;;;;18.00;99.90;;;;;;5034231;28;20048;-79
2023/10/09 14:27:20;;;;;;;;;;;17.90;99.90;;;;;;5016251;28;19971;-78
2023/10/09 14:29:45;;;;;;;;;;;17.80;99.90;;;;;;5016296;28;20090;-79
2023/10/09 14:32:14;;;;;;;;;;;17.80;99.90;;;;;;5032874;28;19917;-81
2023/10/09 14:34:47;;;;;;;;;;;17.70;99.90;;;;;;5032569;28;19917;-79
2023/10/09 14:37:14;;;;;;;;;;;17.70;99.90;;;;;;5032581;28;19967;-79
2023/10/09 14:39:48;;;;;;;;;;;17.60;99.90;;;;;;5032784;28;19963;-79
2023/10/09 14:42:17;;;;;;;;;;;17.60;99.90;;;;;;5032269;28;19925;-79
2023/10/09 14:44:44;;;;;;;;;;;17.50;99.90;;;;;;5032716;28;19917;-80
2023/10/09 14:47:11;;;;;;;;;;;17.50;99.90;;;;;;5032235;28;20011;-78
2023/10/09 14:49:46;;;;;;;;;;;17.50;99.90;;;;;;5032589;28;20284;-79
2023/10/09 14:52:19;;;;;;;;;;;17.50;99.90;;;;;;5032819;28;19925;-80
2023/10/09 14:54:45;;;;;;;;;;;17.50;99.90;;;;;;5032340;28;19917;-78
2023/10/09 14:57:11;;;;;;;;;;;17.50;99.90;;;;;;5015750;28;19917;-79
2023/10/09 14:59:37;;;;;;;;;;;17.60;99.90;;;;;;5032839;28;19924;-79
2023/10/09 15:02:05;;;;;;;;;;;17.50;99.90;;;;;;5032260;28;19921;-78
2023/10/09 15:04:30;;;;;;;;;;;17.60;99.90;;;;;;5031620;28;20008;-79
2023/10/09 15:06:56;;;;;;;;;;;17.60;99.90;;;;;;5015795;28;20389;-78
2023/10/09 15:09:22;;;;;;;;;;;17.60;99.90;;;;;;5036732;28;20411;-77
2023/10/09 15:11:48;;;;;;;;;;;17.50;99.90;;;;;;5038157;28;20000;-80
2023/10/09 15:14:14;;;;;;;;;;;17.50;99.90;;;;;;5036243;28;19917;-78
2023/10/09 15:16:42;;;;;;;;;;;17.50;99.90;;;;;;5036141;28;19919;-79
2023/10/09 15:19:09;;;;;;;;;;;17.50;99.90;;;;;;5036407;28;19947;-79
2023/10/09 15:21:35;;;;;;;;;;;17.50;99.90;;;;;;5036009;28;20404;-80
2023/10/09 15:24:01;;;;;;;;;;;17.40;99.90;;;;;;5035877;28;19924;-79
2023/10/09 15:26:32;;;;;;;;;;;17.40;99.90;;;;;;5035954;28;19917;-79
2023/10/09 15:29:00;;;;;;;;;;;17.40;99.90;;;;;;5035791;28;19917;-80
2023/10/09 15:31:25;;;;;;;;;;;17.30;99.90;;;;;;5019563;28;20362;-79
2023/10/09 15:33:51;;;;;;;;;;;17.30;99.90;;;;;;5019587;28;19917;-78
2023/10/09 15:36:20;;;;;;;;;;;17.30;99.90;;;;;;5037501;28;20323;-79
2023/10/09 15:38:46;;;;;;;;;;;17.20;99.90;;;;;;5035630;28;19967;-79
2023/10/09 15:41:15;;;;;;;;;;;17.20;99.90;;;;;;5035667;28;19924;-79
2023/10/09 15:43:41;;;;;;;;;;;17.20;99.90;;;;;;5035623;28;19917;-80
2023/10/09 15:46:16;;;;;;;;;;;17.20;99.90;;;;;;5019069;28;19917;-78
2023/10/09 15:48:42;;;;;;;;;;;17.20;99.90;;;;;;5035547;28;20380;-79
2023/10/09 15:51:14;;;;;;;;;;;17.20;99.90;;;;;;5035717;28;20324;-79
2023/10/09 15:53:43;;;;;;;;;;;17.10;99.90;;;;;;5019199;28;19917;-80
2023/10/09 15:56:11;;;;;;;;;;;17.10;99.90;;;;;;5035384;28;20008;-79
2023/10/09 15:58:42;;;;;;;;;;;17.10;99.90;;;;;;5035645;28;19991;-80
2023/10/09 16:01:12;;;;;;;;;;;17.10;99.90;;;;;;5036607;28;19916;-79
2023/10/09 16:03:40;;;;;;;;;;;17.10;99.90;;;;;;5035353;28;19917;-79
2023/10/09 16:06:08;;;;;;;;;;;17.00;99.90;;;;;;5036484;28;19956;-79
2023/10/09 16:08:36;;;;;;;;;;;17.00;99.90;;;;;;5035385;28;19967;-79
2023/10/09 16:11:03;;;;;;;;;;;17.00;99.90;;;;;;5035284;28;19966;-79
2023/10/09 16:13:29;;;;;;;;;;;17.00;99.90;;;;;;5018690;28;19917;-81
2023/10/09 16:15:59;;;;;;;;;;;17.00;99.90;;;;;;5036776;28;20103;-81
2023/10/09 16:18:27;;;;;;;;;;;17.00;99.90;;;;;;5037001;28;20253;-80
2023/10/09 16:20:55;;;;;;;;;;;17.00;99.90;;;;;;5034900;28;19924;-79
2023/10/09 16:23:21;;;;;;;;;;;16.90;99.90;;;;;;5035448;28;20266;-78
2023/10/09 16:25:48;;;;;;;;;;;17.00;99.90;;;;;;5034976;28;19924;-79
2023/10/09 16:28:15;;;;;;;;;;;16.90;99.90;;;;;;5035126;28;19924;-79
2023/10/09 16:30:42;;;;;;;;;;;16.90;99.90;;;;;;5036235;28;20288;-79
2023/10/09 16:33:08;;;;;;;;;;;16.90;99.90;;;;;;5035159;28;19917;-79
2023/10/09 16:35:37;;;;;;;;;;;16.90;99.90;;;;;;5018444;28;19923;-79
2023/10/09 16:38:05;;;;;;;;;;;16.90;99.90;;;;;;5034389;28;19917;-78
2023/10/09 16:40:34;;;;;;;;;;;16.80;99.90;;;;;;5018027;28;19921;-79
2023/10/09 16:43:01;;;;;;;;;;;16.80;99.90;;;;;;5034364;28;20011;-79
2023/10/09 16:45:26;;;;;;;;;;;16.80;99.90;;;;;;5034823;28;20339;-79
2023/10/09 16:47:54;;;;;;;;;;;16.70;99.90;;;;;;5018038;28;19921;-79
2023/10/09 16:50:25;;;;;;;;;;;16.70;99.90;;;;;;5018430;28;20027;-80
2023/10/09 16:52:51;;;;;;;;;;;16.70;99.90;;;;;;5034437;28;19970;-78
2023/10/09 16:55:19;;;;;;;;;;;16.70;99.90;;;;;;5034388;28;20004;-77
2023/10/09 16:57:46;;;;;;;;;;;16.70;99.90;;;;;;5034569;28;20397;-79
2023/10/09 17:00:28;;;;;;;;;;;16.60;99.90;;;;;;5035751;28;19984;-79
2023/10/09 17:02:57;;;;;;;;;;;16.60;99.90;;;;;;5034163;28;19921;-80
2023/10/09 17:05:32;;;;;;;;;;;16.60;99.90;;;;;;5034388;28;19917;-79
2023/10/09 17:07:58;;;;;;;;;;;16.60;99.90;;;;;;5033175;28;20574;-79
2023/10/09 17:10:34;;;;;;;;;;;16.60;99.90;;;;;;5033177;28;20003;-79
2023/10/09 17:13:00;;;;;;;;;;;16.60;99.90;;;;;;5032787;28;19917;-80
2023/10/09 17:15:32;;;;;;;;;;;16.60;99.90;;;;;;5033727;28;19995;-79
2023/10/09 17:18:00;;;;;;;;;;;16.50;99.90;;;;;;5033371;28;20269;-81
2023/10/09 17:20:27;;;;;;;;;;;16.50;99.90;;;;;;5033851;28;20381;-81
2023/10/09 17:22:52;;;;;;;;;;;16.50;99.90;;;;;;5035149;28;19971;-79
2023/10/09 17:25:18;;;;;;;;;;;16.50;99.90;;;;;;5034031;28;20329;-80
2023/10/09 17:27:44;;;;;;;;;;;16.50;99.90;;;;;;5033943;28;19917;-78
2023/10/09 17:30:10;;;;;;;;;;;16.50;99.90;;;;;;5033366;28;19917;-79
2023/10/09 17:32:37;;;;;;;;;;;16.50;99.90;;;;;;5033844;28;20389;-80
2023/10/09 17:35:09;;;;;;;;;;;16.50;99.90;;;;;;5034068;28;19971;-79
2023/10/09 17:37:36;;;;;;;;;;;16.40;99.90;;;;;;5033560;28;19943;-79
2023/10/09 17:40:02;;;;;;;;;;;16.40;99.90;;;;;;5035378;28;19924;-79
2023/10/09 17:42:27;;;;;;;;;;;16.40;99.90;;;;;;5034764;28;20327;-78
2023/10/09 17:44:55;;;;;;;;;;;16.40;99.90;;;;;;5033516;28;19943;-79
2023/10/09 17:47:21;;;;;;;;;;;16.40;99.90;;;;;;5033438;28;19932;-79
2023/10/09 17:49:47;;;;;;;;;;;16.40;99.90;;;;;;5033710;28;20279;-79
2023/10/09 17:52:12;;;;;;;;;;;16.40;99.90;;;;;;5016870;28;20380;-79
2023/10/09 17:54:39;;;;;;;;;;;16.40;99.90;;;;;;5020411;28;19956;-80
2023/10/09 17:57:04;;;;;;;;;;;16.40;99.90;;;;;;4997077;28;20011;-79
2023/10/09 17:59:31;;;;;;;;;;;16.40;99.90;;;;;;5013636;28;19953;-80
2023/10/09 18:01:57;;;;;;;;;;;16.40;99.90;;;;;;5012426;28;19926;-80
2023/10/09 18:04:23;;;;;;;;;;;16.40;99.90;;;;;;4996394;28;20288;-80
2023/10/09 18:06:52;;;;;;;;;;;16.40;99.90;;;;;;5014298;28;19921;-79
2023/10/09 18:09:21;;;;;;;;;;;16.40;99.90;;;;;;5013357;28;19921;-79
2023/10/09 18:11:55;;;;;;;;;;;16.30;99.90;;;;;;5013353;28;20391;-79
2023/10/09 18:14:23;;;;;;;;;;;16.30;99.90;;;;;;5014689;28;20388;-79
2023/10/09 18:16:49;;;;;;;;;;;16.30;99.90;;;;;;5013405;28;19917;-80
2023/10/09 18:19:14;;;;;;;;;;;16.30;99.90;;;;;;5013534;28;19924;-81
2023/10/09 18:21:43;;;;;;;;;;;16.30;99.90;;;;;;5013169;28;20269;-80
2023/10/09 18:24:13;;;;;;;;;;;16.30;99.90;;;;;;5013165;28;19917;-78
2023/10/09 18:26:44;;;;;;;;;;;16.30;99.90;;;;;;5013415;28;19917;-79
2023/10/09 18:29:11;;;;;;;;;;;16.30;99.90;;;;;;5013434;28;20284;-80
2023/10/09 18:31:38;;;;;;;;;;;16.30;99.90;;;;;;5013323;28;19917;-80
2023/10/09 18:34:07;;;;;;;;;;;16.30;99.90;;;;;;4997127;28;19940;-80
2023/10/09 18:36:33;;;;;;;;;;;16.20;99.90;;;;;;5013159;28;19917;-79
2023/10/09 18:38:59;;;;;;;;;;;16.20;99.90;;;;;;5012874;28;19918;-80
2023/10/09 18:41:24;;;;;;;;;;;16.20;99.90;;;;;;5012326;28;19921;-80
2023/10/09 18:43:51;;;;;;;;;;;16.20;99.90;;;;;;5013804;28;19964;-79
2023/10/09 18:46:18;;;;;;;;;;;16.20;99.90;;;;;;5013213;28;19986;-79
2023/10/09 18:48:45;;;;;;;;;;;16.20;99.90;;;;;;5013630;28;19917;-79
2023/10/09 18:51:17;;;;;;;;;;;16.20;99.90;;;;;;5013207;28;19964;-79
2023/10/09 18:53:43;;;;;;;;;;;16.20;99.90;;;;;;5013189;28;19983;-79
2023/10/09 18:56:15;;;;;;;;;;;16.10;99.90;;;;;;5012871;28;19964;-80
2023/10/09 18:58:41;;;;;;;;;;;16.10;99.90;;;;;;5012863;28;19957;-79
2023/10/09 19:01:12;;;;;;;;;;;16.10;99.90;;;;;;4996158;28;19925;-79
2023/10/09 19:03:39;;;;;;;;;;;16.10;99.90;;;;;;5012818;28;19924;-79
2023/10/09 19:06:08;;;;;;;;;;;16.10;99.90;;;;;;5013085;28;19917;-80
2023/10/09 19:08:34;;;;;;;;;;;16.10;99.90;;;;;;5013078;28;19918;-79
2023/10/09 19:11:00;;;;;;;;;;;16.10;99.90;;;;;;5012819;28;20442;-79
2023/10/09 19:13:26;;;;;;;;;;;16.10;99.90;;;;;;5012748;28;20016;-79
2023/10/09 19:15:51;;;;;;;;;;;16.00;99.90;;;;;;5014057;28;19924;-79
2023/10/09 19:18:19;;;;;;;;;;;16.00;99.90;;;;;;5012643;28;20031;-79
2023/10/09 19:20:47;;;;;;;;;;;16.00;99.90;;;;;;5012855;28;19918;-79
2023/10/09 19:23:16;;;;;;;;;;;16.10;99.90;;;;;;5012523;28;20403;-79
2023/10/09 19:25:41;;;;;;;;;;;16.00;99.90;;;;;;5012633;28;19917;-79
2023/10/09 19:28:12;;;;;;;;;;;16.10;99.90;;;;;;5012628;28;19968;-79
2023/10/09 19:30:38;;;;;;;;;;;16.00;99.90;;;;;;5013728;28;19917;-79
2023/10/09 19:33:05;;;;;;;;;;;16.00;99.90;;;;;;5013717;28;19917;-79
2023/10/09 19:35:33;;;;;;;;;;;16.00;99.90;;;;;;5012410;28;20384;-79
2023/10/09 19:38:00;;;;;;;;;;;16.00;99.90;;;;;;5012423;28;19917;-80
2023/10/09 19:40:26;;;;;;;;;;;16.00;99.90;;;;;;5012606;28;19921;-79
2023/10/09 19:42:52;;;;;;;;;;;16.00;99.90;;;;;;5012446;28;19944;-79
2023/10/09 19:45:19;;;;;;;;;;;16.00;99.90;;;;;;5014204;28;19944;-79
2023/10/09 19:47:45;;;;;;;;;;;16.00;99.90;;;;;;5013940;28;19932;-79
2023/10/09 19:50:14;;;;;;;;;;;16.00;99.90;;;;;;5032247;28;20257;-78
2023/10/09 19:52:40;;;;;;;;;;;16.00;99.90;;;;;;5032161;28;20267;-79